sensor_id;sensor_type;location;lat;lon;timestamp;temperature;humidity
65989;HTU21D;53592;51.402;6.054;2022-07-01T00:00:00;17.94;73.96
65989;HTU21D;53592;51.402;6.054;2022-07-01T00:02:26;17.90;74.10
65989;HTU21D;53592;51.402;6.054;2022-07-01T00:04:52;17.82;74.25
65989;HTU21D;53592;51.402;6.054;2022-07-01T00:07:18;17.84;74.18
65989;HTU21D;53592;51.402;6.054;2022-07-01T00:09:47;17.78;74.41
65989;HTU21D;53592;51.402;6.054;2022-07-01T00:12:12;17.67;74.54
65989;HTU21D;53592;51.402;6.054;2022-07-01T00:14:38;17.56;74.96
65989;HTU21D;53592;51.402;6.054;2022-07-01T00:17:04;17.52;75.25
65989;HTU21D;53592;51.402;6.054;2022-07-01T00:19:30;17.41;75.28
65989;HTU21D;53592;51.402;6.054;2022-07-01T00:21:56;17.35;75.57
65989;HTU21D;53592;51.402;6.054;2022-07-01T00:24:21;17.24;76.07
65989;HTU21D;53592;51.402;6.054;2022-07-01T00:26:47;17.23;76.46
65989;HTU21D;53592;51.402;6.054;2022-07-01T00:29:12;17.26;76.24
65989;HTU21D;53592;51.402;6.054;2022-07-01T00:31:38;17.31;76.16
65989;HTU21D;53592;51.402;6.054;2022-07-01T00:34:03;17.29;75.99
65989;HTU21D;53592;51.402;6.054;2022-07-01T00:36:29;17.31;75.85
65989;HTU21D;53592;51.402;6.054;2022-07-01T00:38:55;17.24;75.93
65989;HTU21D;53592;51.402;6.054;2022-07-01T00:41:20;17.19;76.13
65989;HTU21D;53592;51.402;6.054;2022-07-01T00:43:46;17.10;76.54
65989;HTU21D;53592;51.402;6.054;2022-07-01T00:46:12;17.17;76.56
65989;HTU21D;53592;51.402;6.054;2022-07-01T00:48:38;17.15;76.31
65989;HTU21D;53592;51.402;6.054;2022-07-01T00:51:04;17.11;76.36
65989;HTU21D;53592;51.402;6.054;2022-07-01T00:53:30;17.05;76.41
65989;HTU21D;53592;51.402;6.054;2022-07-01T00:55:56;16.98;76.76
65989;HTU21D;53592;51.402;6.054;2022-07-01T00:58:22;16.96;76.82
65989;HTU21D;53592;51.402;6.054;2022-07-01T01:00:47;16.91;76.69
65989;HTU21D;53592;51.402;6.054;2022-07-01T01:03:13;16.84;77.05
65989;HTU21D;53592;51.402;6.054;2022-07-01T01:05:40;16.82;76.98
65989;HTU21D;53592;51.402;6.054;2022-07-01T01:08:08;16.84;76.95
65989;HTU21D;53592;51.402;6.054;2022-07-01T01:10:36;16.85;76.98
65989;HTU21D;53592;51.402;6.054;2022-07-01T01:13:03;16.88;76.61
65989;HTU21D;53592;51.402;6.054;2022-07-01T01:15:32;16.77;76.92
65989;HTU21D;53592;51.402;6.054;2022-07-01T01:17:58;16.73;77.14
65989;HTU21D;53592;51.402;6.054;2022-07-01T01:20:25;16.77;77.07
65989;HTU21D;53592;51.402;6.054;2022-07-01T01:22:52;16.77;76.87
65989;HTU21D;53592;51.402;6.054;2022-07-01T01:25:18;16.65;77.31
65989;HTU21D;53592;51.402;6.054;2022-07-01T01:27:46;16.59;77.65
65989;HTU21D;53592;51.402;6.054;2022-07-01T01:30:12;16.59;77.85
65989;HTU21D;53592;51.402;6.054;2022-07-01T01:32:38;16.67;77.83
65989;HTU21D;53592;51.402;6.054;2022-07-01T01:35:06;16.71;77.65
65989;HTU21D;53592;51.402;6.054;2022-07-01T01:37:33;16.74;77.74
65989;HTU21D;53592;51.402;6.054;2022-07-01T01:39:59;16.78;77.58
65989;HTU21D;53592;51.402;6.054;2022-07-01T01:42:27;16.84;77.45
65989;HTU21D;53592;51.402;6.054;2022-07-01T01:44:52;16.86;77.29
65989;HTU21D;53592;51.402;6.054;2022-07-01T01:47:20;16.77;77.64
65989;HTU21D;53592;51.402;6.054;2022-07-01T01:49:46;16.77;77.60
65989;HTU21D;53592;51.402;6.054;2022-07-01T01:52:11;16.71;77.85
65989;HTU21D;53592;51.402;6.054;2022-07-01T01:54:37;16.67;78.07
65989;HTU21D;53592;51.402;6.054;2022-07-01T01:57:03;16.64;78.40
65989;HTU21D;53592;51.402;6.054;2022-07-01T01:59:29;16.63;78.26
65989;HTU21D;53592;51.402;6.054;2022-07-01T02:01:55;16.69;78.34
65989;HTU21D;53592;51.402;6.054;2022-07-01T02:04:20;16.72;78.41
65989;HTU21D;53592;51.402;6.054;2022-07-01T02:06:50;16.74;78.37
65989;HTU21D;53592;51.402;6.054;2022-07-01T02:09:16;16.73;78.32
65989;HTU21D;53592;51.402;6.054;2022-07-01T02:11:41;16.73;78.45
65989;HTU21D;53592;51.402;6.054;2022-07-01T02:14:07;16.67;78.42
65989;HTU21D;53592;51.402;6.054;2022-07-01T02:16:32;16.66;78.67
65989;HTU21D;53592;51.402;6.054;2022-07-01T02:18:58;16.67;78.56
65989;HTU21D;53592;51.402;6.054;2022-07-01T02:21:24;16.65;78.93
65989;HTU21D;53592;51.402;6.054;2022-07-01T02:23:49;16.70;78.83
65989;HTU21D;53592;51.402;6.054;2022-07-01T02:26:17;16.77;78.61
65989;HTU21D;53592;51.402;6.054;2022-07-01T02:28:42;16.86;78.10
65989;HTU21D;53592;51.402;6.054;2022-07-01T02:31:08;16.89;78.00
65989;HTU21D;53592;51.402;6.054;2022-07-01T02:33:33;16.94;78.01
65989;HTU21D;53592;51.402;6.054;2022-07-01T02:35:59;17.02;77.56
65989;HTU21D;53592;51.402;6.054;2022-07-01T02:38:24;17.03;77.39
65989;HTU21D;53592;51.402;6.054;2022-07-01T02:40:50;16.99;77.40
65989;HTU21D;53592;51.402;6.054;2022-07-01T02:43:15;16.95;77.53
65989;HTU21D;53592;51.402;6.054;2022-07-01T02:45:42;16.90;77.61
65989;HTU21D;53592;51.402;6.054;2022-07-01T02:48:07;16.91;77.63
65989;HTU21D;53592;51.402;6.054;2022-07-01T02:50:33;16.85;77.74
65989;HTU21D;53592;51.402;6.054;2022-07-01T02:52:59;16.88;77.64
65989;HTU21D;53592;51.402;6.054;2022-07-01T02:55:25;16.84;77.72
65989;HTU21D;53592;51.402;6.054;2022-07-01T02:57:50;16.80;78.09
65989;HTU21D;53592;51.402;6.054;2022-07-01T03:00:18;16.86;78.08
65989;HTU21D;53592;51.402;6.054;2022-07-01T03:02:44;16.93;77.75
65989;HTU21D;53592;51.402;6.054;2022-07-01T03:05:11;16.90;77.84
65989;HTU21D;53592;51.402;6.054;2022-07-01T03:07:37;16.95;77.54
65989;HTU21D;53592;51.402;6.054;2022-07-01T03:10:04;16.93;77.44
65989;HTU21D;53592;51.402;6.054;2022-07-01T03:12:30;16.94;77.42
65989;HTU21D;53592;51.402;6.054;2022-07-01T03:15:14;16.96;77.25
65989;HTU21D;53592;51.402;6.054;2022-07-01T03:17:48;16.91;77.34
65989;HTU21D;53592;51.402;6.054;2022-07-01T03:20:16;16.94;77.23
65989;HTU21D;53592;51.402;6.054;2022-07-01T03:22:44;16.91;77.29
65989;HTU21D;53592;51.402;6.054;2022-07-01T03:25:10;16.89;77.53
65989;HTU21D;53592;51.402;6.054;2022-07-01T03:27:37;16.79;77.91
65989;HTU21D;53592;51.402;6.054;2022-07-01T03:30:04;16.76;77.96
65989;HTU21D;53592;51.402;6.054;2022-07-01T03:32:31;16.78;78.15
65989;HTU21D;53592;51.402;6.054;2022-07-01T03:34:57;16.78;78.16
65989;HTU21D;53592;51.402;6.054;2022-07-01T03:37:23;16.77;78.25
65989;HTU21D;53592;51.402;6.054;2022-07-01T03:39:50;16.82;78.15
65989;HTU21D;53592;51.402;6.054;2022-07-01T03:42:15;16.87;77.96
65989;HTU21D;53592;51.402;6.054;2022-07-01T03:44:41;16.84;78.08
65989;HTU21D;53592;51.402;6.054;2022-07-01T03:47:09;16.85;78.12
65989;HTU21D;53592;51.402;6.054;2022-07-01T03:49:35;16.85;78.02
65989;HTU21D;53592;51.402;6.054;2022-07-01T03:52:02;16.81;78.20
65989;HTU21D;53592;51.402;6.054;2022-07-01T03:54:31;16.81;78.24
65989;HTU21D;53592;51.402;6.054;2022-07-01T03:57:04;16.81;78.43
65989;HTU21D;53592;51.402;6.054;2022-07-01T03:59:32;16.84;78.34
65989;HTU21D;53592;51.402;6.054;2022-07-01T04:01:59;16.84;78.24
65989;HTU21D;53592;51.402;6.054;2022-07-01T04:04:26;16.88;78.14
65989;HTU21D;53592;51.402;6.054;2022-07-01T04:06:53;16.93;77.92
65989;HTU21D;53592;51.402;6.054;2022-07-01T04:09:21;16.93;77.80
65989;HTU21D;53592;51.402;6.054;2022-07-01T04:11:49;16.85;78.21
65989;HTU21D;53592;51.402;6.054;2022-07-01T04:14:15;16.79;78.29
65989;HTU21D;53592;51.402;6.054;2022-07-01T04:16:42;16.76;78.24
65989;HTU21D;53592;51.402;6.054;2022-07-01T04:19:09;16.75;78.47
65989;HTU21D;53592;51.402;6.054;2022-07-01T04:21:36;16.77;78.14
65989;HTU21D;53592;51.402;6.054;2022-07-01T04:24:20;16.75;78.03
65989;HTU21D;53592;51.402;6.054;2022-07-01T04:26:48;16.69;78.37
65989;HTU21D;53592;51.402;6.054;2022-07-01T04:29:14;16.71;78.30
65989;HTU21D;53592;51.402;6.054;2022-07-01T04:31:40;16.72;78.28
65989;HTU21D;53592;51.402;6.054;2022-07-01T04:34:07;16.71;78.53
65989;HTU21D;53592;51.402;6.054;2022-07-01T04:36:34;16.79;77.89
65989;HTU21D;53592;51.402;6.054;2022-07-01T04:39:00;16.79;77.91
65989;HTU21D;53592;51.402;6.054;2022-07-01T04:41:26;16.87;77.66
65989;HTU21D;53592;51.402;6.054;2022-07-01T04:44:10;16.87;77.71
65989;HTU21D;53592;51.402;6.054;2022-07-01T04:46:36;16.90;77.40
65989;HTU21D;53592;51.402;6.054;2022-07-01T04:49:02;16.92;77.32
65989;HTU21D;53592;51.402;6.054;2022-07-01T04:51:28;16.94;76.95
65989;HTU21D;53592;51.402;6.054;2022-07-01T04:53:54;16.95;76.94
65989;HTU21D;53592;51.402;6.054;2022-07-01T04:56:20;16.94;76.50
65989;HTU21D;53592;51.402;6.054;2022-07-01T04:58:46;16.87;76.71
65989;HTU21D;53592;51.402;6.054;2022-07-01T05:01:11;16.80;76.96
65989;HTU21D;53592;51.402;6.054;2022-07-01T05:03:37;16.81;77.02
65989;HTU21D;53592;51.402;6.054;2022-07-01T05:06:04;16.74;77.47
65989;HTU21D;53592;51.402;6.054;2022-07-01T05:08:29;16.75;77.75
65989;HTU21D;53592;51.402;6.054;2022-07-01T05:10:55;16.82;77.76
65989;HTU21D;53592;51.402;6.054;2022-07-01T05:13:20;16.86;77.86
65989;HTU21D;53592;51.402;6.054;2022-07-01T05:15:46;16.96;77.34
65989;HTU21D;53592;51.402;6.054;2022-07-01T05:18:11;16.92;77.24
65989;HTU21D;53592;51.402;6.054;2022-07-01T05:20:55;16.94;77.16
65989;HTU21D;53592;51.402;6.054;2022-07-01T05:23:40;17.02;77.15
65989;HTU21D;53592;51.402;6.054;2022-07-01T05:26:05;17.09;76.82
65989;HTU21D;53592;51.402;6.054;2022-07-01T05:28:31;17.14;76.36
65989;HTU21D;53592;51.402;6.054;2022-07-01T05:30:56;17.13;76.41
65989;HTU21D;53592;51.402;6.054;2022-07-01T05:33:22;17.16;76.45
65989;HTU21D;53592;51.402;6.054;2022-07-01T05:35:52;17.20;76.14
65989;HTU21D;53592;51.402;6.054;2022-07-01T05:38:54;17.22;76.23
65989;HTU21D;53592;51.402;6.054;2022-07-01T05:41:33;17.30;76.21
65989;HTU21D;53592;51.402;6.054;2022-07-01T05:43:59;17.25;76.00
65989;HTU21D;53592;51.402;6.054;2022-07-01T05:46:25;17.25;76.01
65989;HTU21D;53592;51.402;6.054;2022-07-01T05:48:50;17.28;75.84
65989;HTU21D;53592;51.402;6.054;2022-07-01T05:51:16;17.21;76.08
65989;HTU21D;53592;51.402;6.054;2022-07-01T05:53:41;17.20;76.08
65989;HTU21D;53592;51.402;6.054;2022-07-01T05:56:08;17.25;76.02
65989;HTU21D;53592;51.402;6.054;2022-07-01T05:58:34;17.31;76.05
65989;HTU21D;53592;51.402;6.054;2022-07-01T06:00:59;17.43;75.94
65989;HTU21D;53592;51.402;6.054;2022-07-01T06:03:25;17.50;75.56
65989;HTU21D;53592;51.402;6.054;2022-07-01T06:05:50;17.48;75.49
65989;HTU21D;53592;51.402;6.054;2022-07-01T06:14:34;17.40;74.86
65989;HTU21D;53592;51.402;6.054;2022-07-01T06:17:02;17.44;74.91
65989;HTU21D;53592;51.402;6.054;2022-07-01T06:19:28;17.48;74.73
65989;HTU21D;53592;51.402;6.054;2022-07-01T06:21:53;17.44;74.73
65989;HTU21D;53592;51.402;6.054;2022-07-01T06:24:19;17.46;74.86
65989;HTU21D;53592;51.402;6.054;2022-07-01T06:26:45;17.48;74.55
65989;HTU21D;53592;51.402;6.054;2022-07-01T06:29:12;17.47;74.56
65989;HTU21D;53592;51.402;6.054;2022-07-01T06:31:38;17.48;74.64
65989;HTU21D;53592;51.402;6.054;2022-07-01T06:34:04;17.54;74.77
65989;HTU21D;53592;51.402;6.054;2022-07-01T06:36:29;17.65;75.02
65989;HTU21D;53592;51.402;6.054;2022-07-01T06:38:55;17.84;74.26
65989;HTU21D;53592;51.402;6.054;2022-07-01T06:41:21;18.05;74.53
65989;HTU21D;53592;51.402;6.054;2022-07-01T06:44:00;18.39;73.75
65989;HTU21D;53592;51.402;6.054;2022-07-01T06:46:26;18.78;72.19
65989;HTU21D;53592;51.402;6.054;2022-07-01T06:48:52;18.95;70.97
65989;HTU21D;53592;51.402;6.054;2022-07-01T06:51:24;19.17;70.07
65989;HTU21D;53592;51.402;6.054;2022-07-01T06:54:10;19.33;69.00
65989;HTU21D;53592;51.402;6.054;2022-07-01T06:57:00;19.32;68.22
65989;HTU21D;53592;51.402;6.054;2022-07-01T07:03:08;19.73;68.47
65989;HTU21D;53592;51.402;6.054;2022-07-01T07:05:33;20.02;67.05
65989;HTU21D;53592;51.402;6.054;2022-07-01T07:07:58;20.21;65.82
65989;HTU21D;53592;51.402;6.054;2022-07-01T07:10:24;20.45;65.30
65989;HTU21D;53592;51.402;6.054;2022-07-01T07:12:49;20.72;64.69
65989;HTU21D;53592;51.402;6.054;2022-07-01T07:15:15;20.90;63.66
65989;HTU21D;53592;51.402;6.054;2022-07-01T07:17:41;21.04;62.98
65989;HTU21D;53592;51.402;6.054;2022-07-01T07:20:08;21.16;62.22
65989;HTU21D;53592;51.402;6.054;2022-07-01T07:22:34;21.18;62.19
65989;HTU21D;53592;51.402;6.054;2022-07-01T07:25:00;21.17;61.60
65989;HTU21D;53592;51.402;6.054;2022-07-01T07:27:25;21.04;60.54
65989;HTU21D;53592;51.402;6.054;2022-07-01T07:29:51;20.92;61.20
65989;HTU21D;53592;51.402;6.054;2022-07-01T07:32:16;20.84;61.71
65989;HTU21D;53592;51.402;6.054;2022-07-01T07:34:42;20.83;61.94
65989;HTU21D;53592;51.402;6.054;2022-07-01T07:37:08;20.84;61.96
65989;HTU21D;53592;51.402;6.054;2022-07-01T07:39:33;20.81;62.34
65989;HTU21D;53592;51.402;6.054;2022-07-01T07:41:59;20.85;61.67
65989;HTU21D;53592;51.402;6.054;2022-07-01T07:44:25;20.87;62.03
65989;HTU21D;53592;51.402;6.054;2022-07-01T07:46:54;21.00;61.97
65989;HTU21D;53592;51.402;6.054;2022-07-01T07:49:19;21.30;61.50
65989;HTU21D;53592;51.402;6.054;2022-07-01T07:51:45;21.61;59.95
65989;HTU21D;53592;51.402;6.054;2022-07-01T07:54:10;21.97;59.93
65989;HTU21D;53592;51.402;6.054;2022-07-01T07:56:36;22.37;58.72
65989;HTU21D;53592;51.402;6.054;2022-07-01T07:59:01;22.58;57.56
65989;HTU21D;53592;51.402;6.054;2022-07-01T08:01:27;22.64;55.69
65989;HTU21D;53592;51.402;6.054;2022-07-01T08:03:52;22.66;56.54
65989;HTU21D;53592;51.402;6.054;2022-07-01T08:06:18;22.69;55.29
65989;HTU21D;53592;51.402;6.054;2022-07-01T08:08:43;22.83;52.56
65989;HTU21D;53592;51.402;6.054;2022-07-01T08:11:09;22.93;54.94
65989;HTU21D;53592;51.402;6.054;2022-07-01T08:13:34;23.14;55.59
65989;HTU21D;53592;51.402;6.054;2022-07-01T08:16:01;23.51;54.02
65989;HTU21D;53592;51.402;6.054;2022-07-01T08:18:27;23.79;52.84
65989;HTU21D;53592;51.402;6.054;2022-07-01T08:20:52;24.03;52.31
65989;HTU21D;53592;51.402;6.054;2022-07-01T08:23:19;24.26;51.21
65989;HTU21D;53592;51.402;6.054;2022-07-01T08:25:45;24.19;50.62
65989;HTU21D;53592;51.402;6.054;2022-07-01T08:28:11;24.17;50.14
65989;HTU21D;53592;51.402;6.054;2022-07-01T08:30:36;24.25;50.50
65989;HTU21D;53592;51.402;6.054;2022-07-01T08:33:02;24.08;48.67
65989;HTU21D;53592;51.402;6.054;2022-07-01T08:35:28;23.66;50.35
65989;HTU21D;53592;51.402;6.054;2022-07-01T08:37:54;23.55;51.40
65989;HTU21D;53592;51.402;6.054;2022-07-01T08:40:26;23.66;51.21
65989;HTU21D;53592;51.402;6.054;2022-07-01T08:43:01;23.60;51.76
65989;HTU21D;53592;51.402;6.054;2022-07-01T08:45:29;23.80;51.51
65989;HTU21D;53592;51.402;6.054;2022-07-01T08:47:56;24.03;50.60
65989;HTU21D;53592;51.402;6.054;2022-07-01T08:50:30;24.25;50.30
65989;HTU21D;53592;51.402;6.054;2022-07-01T08:52:57;24.42;49.64
65989;HTU21D;53592;51.402;6.054;2022-07-01T08:55:23;24.47;49.21
65989;HTU21D;53592;51.402;6.054;2022-07-01T08:57:49;24.68;48.65
65989;HTU21D;53592;51.402;6.054;2022-07-01T09:00:16;24.83;49.41
65989;HTU21D;53592;51.402;6.054;2022-07-01T09:03:02;24.78;46.69
65989;HTU21D;53592;51.402;6.054;2022-07-01T09:05:30;24.75;47.23
65989;HTU21D;53592;51.402;6.054;2022-07-01T09:08:30;24.57;47.50
65989;HTU21D;53592;51.402;6.054;2022-07-01T09:11:29;24.44;47.76
65989;HTU21D;53592;51.402;6.054;2022-07-01T09:14:09;24.40;49.63
65989;HTU21D;53592;51.402;6.054;2022-07-01T09:16:44;24.46;49.76
65989;HTU21D;53592;51.402;6.054;2022-07-01T09:19:31;24.69;49.05
65989;HTU21D;53592;51.402;6.054;2022-07-01T09:22:01;24.71;46.22
65989;HTU21D;53592;51.402;6.054;2022-07-01T09:24:34;24.72;47.38
65989;HTU21D;53592;51.402;6.054;2022-07-01T09:27:04;24.61;47.08
65989;HTU21D;53592;51.402;6.054;2022-07-01T09:29:45;24.58;47.07
65989;HTU21D;53592;51.402;6.054;2022-07-01T09:32:14;24.66;46.66
65989;HTU21D;53592;51.402;6.054;2022-07-01T09:34:44;24.57;45.91
65989;HTU21D;53592;51.402;6.054;2022-07-01T09:37:19;24.42;46.32
65989;HTU21D;53592;51.402;6.054;2022-07-01T09:39:56;24.28;45.92
65989;HTU21D;53592;51.402;6.054;2022-07-01T09:42:29;24.11;46.06
65989;HTU21D;53592;51.402;6.054;2022-07-01T09:44:57;24.01;46.97
65989;HTU21D;53592;51.402;6.054;2022-07-01T09:47:26;24.05;46.89
65989;HTU21D;53592;51.402;6.054;2022-07-01T09:53:23;24.25;46.39
65989;HTU21D;53592;51.402;6.054;2022-07-01T09:55:49;24.47;45.62
65989;HTU21D;53592;51.402;6.054;2022-07-01T09:58:50;24.53;45.05
65989;HTU21D;53592;51.402;6.054;2022-07-01T10:01:17;24.59;46.47
65989;HTU21D;53592;51.402;6.054;2022-07-01T10:03:43;24.47;45.92
65989;HTU21D;53592;51.402;6.054;2022-07-01T10:12:50;24.56;43.85
65989;HTU21D;53592;51.402;6.054;2022-07-01T10:16:17;24.73;45.43
65989;HTU21D;53592;51.402;6.054;2022-07-01T10:18:42;24.71;44.79
65989;HTU21D;53592;51.402;6.054;2022-07-01T10:21:25;24.64;44.82
65989;HTU21D;53592;51.402;6.054;2022-07-01T10:27:35;24.72;45.99
65989;HTU21D;53592;51.402;6.054;2022-07-01T10:30:14;25.06;45.19
65989;HTU21D;53592;51.402;6.054;2022-07-01T10:32:50;25.32;44.42
65989;HTU21D;53592;51.402;6.054;2022-07-01T10:35:16;25.37;43.51
65989;HTU21D;53592;51.402;6.054;2022-07-01T10:37:58;25.33;43.28
65989;HTU21D;53592;51.402;6.054;2022-07-01T10:40:42;25.31;42.92
65989;HTU21D;53592;51.402;6.054;2022-07-01T10:43:15;25.37;44.22
65989;HTU21D;53592;51.402;6.054;2022-07-01T10:45:45;25.51;42.08
65989;HTU21D;53592;51.402;6.054;2022-07-01T10:48:19;25.62;42.51
65989;HTU21D;53592;51.402;6.054;2022-07-01T10:50:55;25.68;42.77
65989;HTU21D;53592;51.402;6.054;2022-07-01T10:53:21;25.82;42.90
65989;HTU21D;53592;51.402;6.054;2022-07-01T10:55:54;25.71;41.58
65989;HTU21D;53592;51.402;6.054;2022-07-01T10:58:38;25.44;41.79
65989;HTU21D;53592;51.402;6.054;2022-07-01T11:01:07;25.28;42.49
65989;HTU21D;53592;51.402;6.054;2022-07-01T11:03:37;25.27;43.06
65989;HTU21D;53592;51.402;6.054;2022-07-01T11:06:10;25.40;43.01
65989;HTU21D;53592;51.402;6.054;2022-07-01T11:08:36;25.61;42.67
65989;HTU21D;53592;51.402;6.054;2022-07-01T11:11:04;25.59;42.30
65989;HTU21D;53592;51.402;6.054;2022-07-01T11:14:23;25.67;42.56
65989;HTU21D;53592;51.402;6.054;2022-07-01T11:16:52;25.68;41.95
65989;HTU21D;53592;51.402;6.054;2022-07-01T11:19:23;25.58;41.73
65989;HTU21D;53592;51.402;6.054;2022-07-01T11:21:58;25.50;41.52
65989;HTU21D;53592;51.402;6.054;2022-07-01T11:24:25;25.61;43.51
65989;HTU21D;53592;51.402;6.054;2022-07-01T11:26:55;25.91;42.34
65989;HTU21D;53592;51.402;6.054;2022-07-01T11:29:27;26.31;40.24
65989;HTU21D;53592;51.402;6.054;2022-07-01T11:32:02;26.27;40.28
65989;HTU21D;53592;51.402;6.054;2022-07-01T11:34:31;26.32;41.16
65989;HTU21D;53592;51.402;6.054;2022-07-01T11:36:58;26.46;40.33
65989;HTU21D;53592;51.402;6.054;2022-07-01T11:39:42;26.54;40.85
65989;HTU21D;53592;51.402;6.054;2022-07-01T11:42:11;26.69;40.20
65989;HTU21D;53592;51.402;6.054;2022-07-01T11:44:40;26.93;40.25
65989;HTU21D;53592;51.402;6.054;2022-07-01T11:47:10;27.15;39.14
65989;HTU21D;53592;51.402;6.054;2022-07-01T11:49:48;27.12;40.22
65989;HTU21D;53592;51.402;6.054;2022-07-01T11:52:17;27.42;38.69
65989;HTU21D;53592;51.402;6.054;2022-07-01T11:54:46;27.35;38.52
65989;HTU21D;53592;51.402;6.054;2022-07-01T11:57:17;27.25;38.15
65989;HTU21D;53592;51.402;6.054;2022-07-01T11:59:45;27.23;38.40
65989;HTU21D;53592;51.402;6.054;2022-07-01T12:02:12;27.22;38.11
65989;HTU21D;53592;51.402;6.054;2022-07-01T12:04:48;27.21;39.01
65989;HTU21D;53592;51.402;6.054;2022-07-01T12:07:15;27.24;37.16
65989;HTU21D;53592;51.402;6.054;2022-07-01T12:09:42;27.24;37.35
65989;HTU21D;53592;51.402;6.054;2022-07-01T12:12:33;27.25;36.39
65989;HTU21D;53592;51.402;6.054;2022-07-01T12:15:45;27.23;38.06
65989;HTU21D;53592;51.402;6.054;2022-07-01T12:18:20;27.30;37.30
65989;HTU21D;53592;51.402;6.054;2022-07-01T12:20:53;27.27;37.86
65989;HTU21D;53592;51.402;6.054;2022-07-01T12:27:21;27.40;38.74
65989;HTU21D;53592;51.402;6.054;2022-07-01T12:32:15;27.55;37.12
65989;HTU21D;53592;51.402;6.054;2022-07-01T12:34:46;27.59;36.38
65989;HTU21D;53592;51.402;6.054;2022-07-01T12:37:18;27.67;36.04
65989;HTU21D;53592;51.402;6.054;2022-07-01T12:39:55;27.79;36.54
65989;HTU21D;53592;51.402;6.054;2022-07-01T12:42:37;27.61;36.04
65989;HTU21D;53592;51.402;6.054;2022-07-01T12:45:08;27.49;37.37
65989;HTU21D;53592;51.402;6.054;2022-07-01T12:50:28;26.95;36.43
65989;HTU21D;53592;51.402;6.054;2022-07-01T12:55:26;26.08;39.26
65989;HTU21D;53592;51.402;6.054;2022-07-01T12:57:55;25.92;40.07
65989;HTU21D;53592;51.402;6.054;2022-07-01T13:00:23;25.82;40.40
65989;HTU21D;53592;51.402;6.054;2022-07-01T13:02:53;25.84;41.27
65989;HTU21D;53592;51.402;6.054;2022-07-01T13:05:19;25.97;39.85
65989;HTU21D;53592;51.402;6.054;2022-07-01T13:07:44;25.97;40.18
65989;HTU21D;53592;51.402;6.054;2022-07-01T13:10:10;26.01;40.08
65989;HTU21D;53592;51.402;6.054;2022-07-01T13:12:35;25.80;40.27
65989;HTU21D;53592;51.402;6.054;2022-07-01T13:15:01;25.77;41.41
65989;HTU21D;53592;51.402;6.054;2022-07-01T13:17:27;25.98;40.88
65989;HTU21D;53592;51.402;6.054;2022-07-01T13:19:53;26.07;39.41
65989;HTU21D;53592;51.402;6.054;2022-07-01T13:22:19;26.17;40.16
65989;HTU21D;53592;51.402;6.054;2022-07-01T13:24:45;26.23;40.33
65989;HTU21D;53592;51.402;6.054;2022-07-01T13:27:10;26.20;39.68
65989;HTU21D;53592;51.402;6.054;2022-07-01T13:29:36;26.16;39.65
65989;HTU21D;53592;51.402;6.054;2022-07-01T13:32:03;26.21;40.07
65989;HTU21D;53592;51.402;6.054;2022-07-01T13:34:28;26.32;39.27
65989;HTU21D;53592;51.402;6.054;2022-07-01T13:36:54;26.26;40.87
65989;HTU21D;53592;51.402;6.054;2022-07-01T13:39:20;26.41;40.99
65989;HTU21D;53592;51.402;6.054;2022-07-01T13:41:46;26.56;39.68
65989;HTU21D;53592;51.402;6.054;2022-07-01T13:44:11;26.63;38.65
65989;HTU21D;53592;51.402;6.054;2022-07-01T13:46:37;26.73;38.53
65989;HTU21D;53592;51.402;6.054;2022-07-01T13:49:03;26.72;37.90
65989;HTU21D;53592;51.402;6.054;2022-07-01T13:51:29;26.62;37.42
65989;HTU21D;53592;51.402;6.054;2022-07-01T13:53:54;26.55;37.15
65989;HTU21D;53592;51.402;6.054;2022-07-01T13:56:20;26.30;37.77
65989;HTU21D;53592;51.402;6.054;2022-07-01T13:58:47;26.20;38.46
65989;HTU21D;53592;51.402;6.054;2022-07-01T14:01:17;26.28;38.49
65989;HTU21D;53592;51.402;6.054;2022-07-01T14:03:42;26.21;38.67
65989;HTU21D;53592;51.402;6.054;2022-07-01T14:06:08;26.24;38.96
65989;HTU21D;53592;51.402;6.054;2022-07-01T14:08:33;26.31;39.01
65989;HTU21D;53592;51.402;6.054;2022-07-01T14:10:58;26.32;38.85
65989;HTU21D;53592;51.402;6.054;2022-07-01T14:13:24;26.30;38.69
65989;HTU21D;53592;51.402;6.054;2022-07-01T14:15:50;26.30;39.48
65989;HTU21D;53592;51.402;6.054;2022-07-01T14:18:15;26.36;39.52
65989;HTU21D;53592;51.402;6.054;2022-07-01T14:20:42;26.45;39.65
65989;HTU21D;53592;51.402;6.054;2022-07-01T14:23:08;26.39;39.13
65989;HTU21D;53592;51.402;6.054;2022-07-01T14:25:33;26.31;39.23
65989;HTU21D;53592;51.402;6.054;2022-07-01T14:27:59;26.30;39.84
65989;HTU21D;53592;51.402;6.054;2022-07-01T14:30:24;26.27;39.90
65989;HTU21D;53592;51.402;6.054;2022-07-01T14:32:50;26.30;39.38
65989;HTU21D;53592;51.402;6.054;2022-07-01T14:35:15;26.20;39.48
65989;HTU21D;53592;51.402;6.054;2022-07-01T14:37:41;26.06;39.52
65989;HTU21D;53592;51.402;6.054;2022-07-01T14:40:09;26.03;41.39
65989;HTU21D;53592;51.402;6.054;2022-07-01T14:42:35;26.04;40.30
65989;HTU21D;53592;51.402;6.054;2022-07-01T14:45:01;25.99;40.52
65989;HTU21D;53592;51.402;6.054;2022-07-01T14:47:27;26.02;40.70
65989;HTU21D;53592;51.402;6.054;2022-07-01T14:49:52;25.84;40.02
65989;HTU21D;53592;51.402;6.054;2022-07-01T14:52:20;25.69;39.80
65989;HTU21D;53592;51.402;6.054;2022-07-01T14:54:45;25.61;40.26
65989;HTU21D;53592;51.402;6.054;2022-07-01T14:57:11;25.66;40.88
65989;HTU21D;53592;51.402;6.054;2022-07-01T14:59:37;25.64;40.55
65989;HTU21D;53592;51.402;6.054;2022-07-01T15:02:03;25.63;40.32
65989;HTU21D;53592;51.402;6.054;2022-07-01T15:04:30;25.60;40.56
65989;HTU21D;53592;51.402;6.054;2022-07-01T15:06:56;25.61;40.91
65989;HTU21D;53592;51.402;6.054;2022-07-01T15:09:21;25.50;41.24
65989;HTU21D;53592;51.402;6.054;2022-07-01T15:11:48;25.43;40.97
65989;HTU21D;53592;51.402;6.054;2022-07-01T15:14:14;25.35;41.39
65989;HTU21D;53592;51.402;6.054;2022-07-01T15:16:40;25.37;41.13
65989;HTU21D;53592;51.402;6.054;2022-07-01T15:19:05;25.25;40.74
65989;HTU21D;53592;51.402;6.054;2022-07-01T15:21:31;25.15;41.23
65989;HTU21D;53592;51.402;6.054;2022-07-01T15:23:57;25.06;40.58
65989;HTU21D;53592;51.402;6.054;2022-07-01T15:26:22;24.84;40.86
65989;HTU21D;53592;51.402;6.054;2022-07-01T15:28:48;24.60;41.29
65989;HTU21D;53592;51.402;6.054;2022-07-01T15:31:15;24.45;41.60
65989;HTU21D;53592;51.402;6.054;2022-07-01T15:37:06;24.47;42.02
65989;HTU21D;53592;51.402;6.054;2022-07-01T15:39:50;24.47;41.10
65989;HTU21D;53592;51.402;6.054;2022-07-01T15:42:31;24.42;41.46
65989;HTU21D;53592;51.402;6.054;2022-07-01T15:45:05;24.44;41.67
65989;HTU21D;53592;51.402;6.054;2022-07-01T15:47:31;24.41;41.96
65989;HTU21D;53592;51.402;6.054;2022-07-01T15:50:30;24.44;42.54
65989;HTU21D;53592;51.402;6.054;2022-07-01T15:52:55;24.46;42.37
65989;HTU21D;53592;51.402;6.054;2022-07-01T15:55:21;24.39;41.97
65989;HTU21D;53592;51.402;6.054;2022-07-01T15:57:47;24.29;41.95
65989;HTU21D;53592;51.402;6.054;2022-07-01T16:00:16;24.18;41.61
65989;HTU21D;53592;51.402;6.054;2022-07-01T16:02:43;24.10;41.78